sensor_id;sensor_type;location;lat;lon;timestamp;temperature;humidity
79694;DHT22;69165;52.714;13.200;2023-07-02T05:02:12;16.70;99.90
79694;DHT22;69165;52.714;13.200;2023-07-02T05:04:13;16.70;99.90
79694;DHT22;69165;52.714;13.200;2023-07-02T05:06:14;16.70;99.90
79694;DHT22;69165;52.714;13.200;2023-07-02T05:08:16;16.70;99.90
79694;DHT22;69165;52.714;13.200;2023-07-02T05:10:17;16.70;99.90
79694;DHT22;69165;52.714;13.200;2023-07-02T05:12:19;16.70;99.90
79694;DHT22;69165;52.714;13.200;2023-07-02T05:14:20;16.80;99.90
79694;DHT22;69165;52.714;13.200;2023-07-02T05:16:21;16.90;99.90
79694;DHT22;69165;52.714;13.200;2023-07-02T05:18:22;17.20;99.90
79694;DHT22;69165;52.714;13.200;2023-07-02T05:20:24;17.70;99.90
79694;DHT22;69165;52.714;13.200;2023-07-02T05:22:25;18.30;99.90
79694;DHT22;69165;52.714;13.200;2023-07-02T05:24:26;18.70;99.90
79694;DHT22;69165;52.714;13.200;2023-07-02T05:26:27;18.90;99.90
79694;DHT22;69165;52.714;13.200;2023-07-02T05:28:29;19.30;99.90
79694;DHT22;69165;52.714;13.200;2023-07-02T05:30:31;19.30;99.90
79694;DHT22;69165;52.714;13.200;2023-07-02T05:32:33;19.60;99.90
79694;DHT22;69165;52.714;13.200;2023-07-02T05:34:33;19.90;99.90
79694;DHT22;69165;52.714;13.200;2023-07-02T05:36:34;20.10;99.90
79694;DHT22;69165;52.714;13.200;2023-07-02T05:38:36;19.90;99.90
79694;DHT22;69165;52.714;13.200;2023-07-02T05:40:38;19.20;99.90
79694;DHT22;69165;52.714;13.200;2023-07-02T05:42:39;19.20;99.90
79694;DHT22;69165;52.714;13.200;2023-07-02T05:44:40;18.80;99.90
79694;DHT22;69165;52.714;13.200;2023-07-02T05:46:41;18.40;99.90
79694;DHT22;69165;52.714;13.200;2023-07-02T05:48:43;18.00;99.90
79694;DHT22;69165;52.714;13.200;2023-07-02T05:50:44;17.70;99.90
79694;DHT22;69165;52.714;13.200;2023-07-02T05:52:45;17.50;99.90
79694;DHT22;69165;52.714;13.200;2023-07-02T05:54:46;17.40;99.90
79694;DHT22;69165;52.714;13.200;2023-07-02T05:56:48;17.30;99.90
79694;DHT22;69165;52.714;13.200;2023-07-02T05:58:49;17.20;99.90
79694;DHT22;69165;52.714;13.200;2023-07-02T06:00:50;17.20;99.90
79694;DHT22;69165;52.714;13.200;2023-07-02T06:02:51;17.20;99.90
79694;DHT22;69165;52.714;13.200;2023-07-02T06:04:53;17.10;99.90
79694;DHT22;69165;52.714;13.200;2023-07-02T06:06:54;17.10;99.90
79694;DHT22;69165;52.714;13.200;2023-07-02T06:08:55;17.10;99.90
79694;DHT22;69165;52.714;13.200;2023-07-02T06:10:56;17.10;99.90
79694;DHT22;69165;52.714;13.200;2023-07-02T06:12:58;17.10;99.90
79694;DHT22;69165;52.714;13.200;2023-07-02T06:14:59;17.10;99.90
79694;DHT22;69165;52.714;13.200;2023-07-02T06:17:00;17.10;99.90
79694;DHT22;69165;52.714;13.200;2023-07-02T06:19:01;17.10;99.90
79694;DHT22;69165;52.714;13.200;2023-07-02T06:21:03;17.10;99.90
79694;DHT22;69165;52.714;13.200;2023-07-02T06:23:04;17.10;99.90
79694;DHT22;69165;52.714;13.200;2023-07-02T06:25:06;17.20;99.90
79694;DHT22;69165;52.714;13.200;2023-07-02T06:27:08;17.30;99.90
79694;DHT22;69165;52.714;13.200;2023-07-02T06:29:09;17.30;99.90
79694;DHT22;69165;52.714;13.200;2023-07-02T06:31:11;17.40;99.90
79694;DHT22;69165;52.714;13.200;2023-07-02T06:33:12;17.50;99.90
79694;DHT22;69165;52.714;13.200;2023-07-02T06:35:14;17.70;99.90
79694;DHT22;69165;52.714;13.200;2023-07-02T06:37:15;17.60;99.90
79694;DHT22;69165;52.714;13.200;2023-07-02T06:39:16;17.70;99.90
79694;DHT22;69165;52.714;13.200;2023-07-02T06:41:19;17.60;99.90
79694;DHT22;69165;52.714;13.200;2023-07-02T06:43:20;17.70;99.90
79694;DHT22;69165;52.714;13.200;2023-07-02T06:45:21;17.60;99.90
79694;DHT22;69165;52.714;13.200;2023-07-02T06:47:22;17.70;99.90
79694;DHT22;69165;52.714;13.200;2023-07-02T06:49:23;17.60;99.90
79694;DHT22;69165;52.714;13.200;2023-07-02T06:51:25;17.60;99.90
79694;DHT22;69165;52.714;13.200;2023-07-02T06:53:26;17.70;99.90
79694;DHT22;69165;52.714;13.200;2023-07-02T06:55:27;17.80;99.90
79694;DHT22;69165;52.714;13.200;2023-07-02T06:57:29;18.00;99.90
79694;DHT22;69165;52.714;13.200;2023-07-02T06:59:31;18.20;99.90
79694;DHT22;69165;52.714;13.200;2023-07-02T07:01:33;18.40;99.90
79694;DHT22;69165;52.714;13.200;2023-07-02T07:03:35;18.60;99.90
79694;DHT22;69165;52.714;13.200;2023-07-02T07:05:36;18.60;99.90
79694;DHT22;69165;52.714;13.200;2023-07-02T07:07:37;18.80;99.90
79694;DHT22;69165;52.714;13.200;2023-07-02T07:09:38;18.90;99.90
79694;DHT22;69165;52.714;13.200;2023-07-02T07:11:40;18.80;99.90
79694;DHT22;69165;52.714;13.200;2023-07-02T07:13:41;18.90;99.90
79694;DHT22;69165;52.714;13.200;2023-07-02T07:15:42;18.80;99.90
79694;DHT22;69165;52.714;13.200;2023-07-02T07:17:43;18.80;99.90
79694;DHT22;69165;52.714;13.200;2023-07-02T07:19:45;18.90;99.90
79694;DHT22;69165;52.714;13.200;2023-07-02T07:21:46;19.10;99.90
79694;DHT22;69165;52.714;13.200;2023-07-02T07:23:47;19.20;99.90
79694;DHT22;69165;52.714;13.200;2023-07-02T07:25:48;19.30;99.90
79694;DHT22;69165;52.714;13.200;2023-07-02T07:27:51;19.20;99.90
79694;DHT22;69165;52.714;13.200;2023-07-02T07:29:52;19.20;99.90
79694;DHT22;69165;52.714;13.200;2023-07-02T07:31:53;19.10;99.90
79694;DHT22;69165;52.714;13.200;2023-07-02T07:33:54;18.90;99.90
79694;DHT22;69165;52.714;13.200;2023-07-02T07:35:56;18.80;99.90
79694;DHT22;69165;52.714;13.200;2023-07-02T07:37:57;18.80;99.90
79694;DHT22;69165;52.714;13.200;2023-07-02T07:39:58;18.70;99.90
79694;DHT22;69165;52.714;13.200;2023-07-02T07:41:59;18.70;99.90
79694;DHT22;69165;52.714;13.200;2023-07-02T07:44:01;18.70;99.90
79694;DHT22;69165;52.714;13.200;2023-07-02T07:46:02;18.70;99.90
79694;DHT22;69165;52.714;13.200;2023-07-02T07:48:04;18.70;99.90
79694;DHT22;69165;52.714;13.200;2023-07-02T07:50:05;18.70;99.90
79694;DHT22;69165;52.714;13.200;2023-07-02T07:52:07;18.80;99.90
79694;DHT22;69165;52.714;13.200;2023-07-02T07:54:09;18.70;99.90
79694;DHT22;69165;52.714;13.200;2023-07-02T07:56:10;18.80;99.90
79694;DHT22;69165;52.714;13.200;2023-07-02T07:58:11;18.80;99.90
79694;DHT22;69165;52.714;13.200;2023-07-02T08:00:13;18.70;99.90
79694;DHT22;69165;52.714;13.200;2023-07-02T08:02:14;18.70;99.90
79694;DHT22;69165;52.714;13.200;2023-07-02T08:04:15;18.50;99.90
79694;DHT22;69165;52.714;13.200;2023-07-02T08:06:17;18.50;99.90
79694;DHT22;69165;52.714;13.200;2023-07-02T08:08:18;18.40;99.90
79694;DHT22;69165;52.714;13.200;2023-07-02T08:10:19;18.40;99.90
79694;DHT22;69165;52.714;13.200;2023-07-02T08:12:20;18.30;99.90
79694;DHT22;69165;52.714;13.200;2023-07-02T08:14:22;18.30;99.90
79694;DHT22;69165;52.714;13.200;2023-07-02T08:16:23;18.30;99.90
79694;DHT22;69165;52.714;13.200;2023-07-02T08:18:24;18.30;99.90
79694;DHT22;69165;52.714;13.200;2023-07-02T08:20:25;18.30;99.90
79694;DHT22;69165;52.714;13.200;2023-07-02T08:22:27;18.30;99.90
79694;DHT22;69165;52.714;13.200;2023-07-02T08:24:29;18.20;99.90
79694;DHT22;69165;52.714;13.200;2023-07-02T08:26:30;18.20;99.90
79694;DHT22;69165;52.714;13.200;2023-07-02T08:28:31;18.30;99.90
79694;DHT22;69165;52.714;13.200;2023-07-02T08:30:32;18.40;99.90
79694;DHT22;69165;52.714;13.200;2023-07-02T08:32:34;18.40;99.90
79694;DHT22;69165;52.714;13.200;2023-07-02T08:34:35;18.30;99.90
79694;DHT22;69165;52.714;13.200;2023-07-02T08:36:36;18.40;99.90
79694;DHT22;69165;52.714;13.200;2023-07-02T08:38:37;18.40;99.90
79694;DHT22;69165;52.714;13.200;2023-07-02T08:40:40;18.50;99.90
79694;DHT22;69165;52.714;13.200;2023-07-02T08:42:41;18.50;99.90
79694;DHT22;69165;52.714;13.200;2023-07-02T08:44:46;18.60;99.90
79694;DHT22;69165;52.714;13.200;2023-07-02T08:46:48;18.70;99.90
79694;DHT22;69165;52.714;13.200;2023-07-02T08:48:50;18.70;99.90
79694;DHT22;69165;52.714;13.200;2023-07-02T08:50:51;18.70;99.90
79694;DHT22;69165;52.714;13.200;2023-07-02T08:52:53;18.70;99.90
79694;DHT22;69165;52.714;13.200;2023-07-02T08:54:53;18.70;99.90
79694;DHT22;69165;52.714;13.200;2023-07-02T08:56:55;18.90;99.90
79694;DHT22;69165;52.714;13.200;2023-07-02T08:58:57;19.10;99.90
79694;DHT22;69165;52.714;13.200;2023-07-02T09:01:04;19.10;99.90
79694;DHT22;69165;52.714;13.200;2023-07-02T09:03:11;19.20;99.90
79694;DHT22;69165;52.714;13.200;2023-07-02T09:05:12;19.40;99.90
79694;DHT22;69165;52.714;13.200;2023-07-02T09:07:13;19.40;99.90
79694;DHT22;69165;52.714;13.200;2023-07-02T09:09:15;19.60;99.90
79694;DHT22;69165;52.714;13.200;2023-07-02T09:11:16;19.80;99.90
79694;DHT22;69165;52.714;13.200;2023-07-02T09:13:18;19.90;99.90
79694;DHT22;69165;52.714;13.200;2023-07-02T09:15:19;19.90;99.90
79694;DHT22;69165;52.714;13.200;2023-07-02T09:17:20;20.00;99.90
79694;DHT22;69165;52.714;13.200;2023-07-02T09:19:22;20.00;99.90
79694;DHT22;69165;52.714;13.200;2023-07-02T09:21:25;20.10;99.90
79694;DHT22;69165;52.714;13.200;2023-07-02T09:23:33;20.20;99.90
79694;DHT22;69165;52.714;13.200;2023-07-02T09:25:37;20.30;99.90
79694;DHT22;69165;52.714;13.200;2023-07-02T09:27:40;20.30;99.90
79694;DHT22;69165;52.714;13.200;2023-07-02T09:29:40;20.40;99.90
79694;DHT22;69165;52.714;13.200;2023-07-02T09:31:43;20.30;99.90
79694;DHT22;69165;52.714;13.200;2023-07-02T09:33:44;20.20;99.90
79694;DHT22;69165;52.714;13.200;2023-07-02T09:35:45;20.20;99.90
79694;DHT22;69165;52.714;13.200;2023-07-02T09:37:46;20.00;99.90
79694;DHT22;69165;52.714;13.200;2023-07-02T09:39:49;19.90;99.90
79694;DHT22;69165;52.714;13.200;2023-07-02T09:41:49;20.00;99.90
79694;DHT22;69165;52.714;13.200;2023-07-02T09:43:50;20.00;99.90
79694;DHT22;69165;52.714;13.200;2023-07-02T09:45:53;20.00;99.90
79694;DHT22;69165;52.714;13.200;2023-07-02T09:47:53;20.00;99.90
79694;DHT22;69165;52.714;13.200;2023-07-02T09:49:55;19.90;99.90
79694;DHT22;69165;52.714;13.200;2023-07-02T09:51:56;19.90;99.90
79694;DHT22;69165;52.714;13.200;2023-07-02T09:53:57;19.90;99.90
79694;DHT22;69165;52.714;13.200;2023-07-02T09:55:59;19.80;99.90
79694;DHT22;69165;52.714;13.200;2023-07-02T09:58:01;19.80;99.90
79694;DHT22;69165;52.714;13.200;2023-07-02T10:00:02;19.70;99.90
79694;DHT22;69165;52.714;13.200;2023-07-02T10:02:04;19.90;99.90
79694;DHT22;69165;52.714;13.200;2023-07-02T10:04:17;19.80;99.90
79694;DHT22;69165;52.714;13.200;2023-07-02T10:06:19;20.00;99.90
79694;DHT22;69165;52.714;13.200;2023-07-02T10:08:20;20.20;99.90
79694;DHT22;69165;52.714;13.200;2023-07-02T10:10:26;20.30;99.90
79694;DHT22;69165;52.714;13.200;2023-07-02T10:12:28;20.30;99.90
79694;DHT22;69165;52.714;13.200;2023-07-02T10:14:40;20.30;99.90
79694;DHT22;69165;52.714;13.200;2023-07-02T10:16:29;20.20;99.90
79694;DHT22;69165;52.714;13.200;2023-07-02T10:18:30;20.20;99.90
79694;DHT22;69165;52.714;13.200;2023-07-02T10:20:37;20.20;99.90
79694;DHT22;69165;52.714;13.200;2023-07-02T10:22:42;20.00;99.90
79694;DHT22;69165;52.714;13.200;2023-07-02T10:26:55;19.80;99.90
79694;DHT22;69165;52.714;13.200;2023-07-02T10:28:57;19.80;99.90
79694;DHT22;69165;52.714;13.200;2023-07-02T10:30:58;19.90;99.90
79694;DHT22;69165;52.714;13.200;2023-07-02T10:35:14;20.20;99.90
79694;DHT22;69165;52.714;13.200;2023-07-02T10:37:15;20.60;99.90
79694;DHT22;69165;52.714;13.200;2023-07-02T10:39:16;20.50;99.90
79694;DHT22;69165;52.714;13.200;2023-07-02T10:43:27;20.50;99.90
79694;DHT22;69165;52.714;13.200;2023-07-02T10:45:32;20.30;99.90
79694;DHT22;69165;52.714;13.200;2023-07-02T10:47:33;20.30;99.90
79694;DHT22;69165;52.714;13.200;2023-07-02T10:49:34;20.30;99.90
79694;DHT22;69165;52.714;13.200;2023-07-02T10:51:35;20.30;99.90
79694;DHT22;69165;52.714;13.200;2023-07-02T10:53:37;20.20;99.90
79694;DHT22;69165;52.714;13.200;2023-07-02T10:55:38;20.20;99.90
79694;DHT22;69165;52.714;13.200;2023-07-02T10:57:39;20.10;99.90
79694;DHT22;69165;52.714;13.200;2023-07-02T10:59:40;19.90;99.90
79694;DHT22;69165;52.714;13.200;2023-07-02T11:01:42;19.80;99.90
79694;DHT22;69165;52.714;13.200;2023-07-02T11:03:43;19.90;99.90
79694;DHT22;69165;52.714;13.200;2023-07-02T11:05:44;20.00;99.90
79694;DHT22;69165;52.714;13.200;2023-07-02T11:07:45;20.20;99.90
79694;DHT22;69165;52.714;13.200;2023-07-02T11:09:49;20.50;99.90
79694;DHT22;69165;52.714;13.200;2023-07-02T11:11:54;20.70;99.90
79694;DHT22;69165;52.714;13.200;2023-07-02T11:13:55;20.80;99.90
79694;DHT22;69165;52.714;13.200;2023-07-02T11:15:56;20.70;99.90
79694;DHT22;69165;52.714;13.200;2023-07-02T11:18:07;20.60;99.90
79694;DHT22;69165;52.714;13.200;2023-07-02T11:19:59;20.50;99.90
79694;DHT22;69165;52.714;13.200;2023-07-02T11:22:00;20.50;99.90
79694;DHT22;69165;52.714;13.200;2023-07-02T11:24:02;20.60;99.90
79694;DHT22;69165;52.714;13.200;2023-07-02T11:26:03;20.80;99.90
79694;DHT22;69165;52.714;13.200;2023-07-02T11:28:05;20.90;99.90
79694;DHT22;69165;52.714;13.200;2023-07-02T11:30:07;21.00;99.90
79694;DHT22;69165;52.714;13.200;2023-07-02T11:32:09;21.00;99.60
79694;DHT22;69165;52.714;13.200;2023-07-02T11:34:13;21.00;99.50
79694;DHT22;69165;52.714;13.200;2023-07-02T11:36:19;21.10;99.90
79694;DHT22;69165;52.714;13.200;2023-07-02T11:38:15;21.20;99.90
79694;DHT22;69165;52.714;13.200;2023-07-02T11:40:17;21.30;99.70
79694;DHT22;69165;52.714;13.200;2023-07-02T11:42:18;21.20;99.90
79694;DHT22;69165;52.714;13.200;2023-07-02T11:44:19;21.30;99.90
79694;DHT22;69165;52.714;13.200;2023-07-02T11:46:22;21.70;99.90
79694;DHT22;69165;52.714;13.200;2023-07-02T11:48:23;21.70;99.90
79694;DHT22;69165;52.714;13.200;2023-07-02T11:50:24;21.90;99.90
79694;DHT22;69165;52.714;13.200;2023-07-02T11:52:26;22.00;99.80
79694;DHT22;69165;52.714;13.200;2023-07-02T11:54:27;22.10;99.90
79694;DHT22;69165;52.714;13.200;2023-07-02T11:56:28;22.20;99.10
79694;DHT22;69165;52.714;13.200;2023-07-02T11:58:29;22.00;97.60
79694;DHT22;69165;52.714;13.200;2023-07-02T12:00:31;21.70;98.00
79694;DHT22;69165;52.714;13.200;2023-07-02T12:02:32;21.60;98.10
79694;DHT22;69165;52.714;13.200;2023-07-02T12:04:33;21.60;99.40
79694;DHT22;69165;52.714;13.200;2023-07-02T12:06:34;21.60;98.80
79694;DHT22;69165;52.714;13.200;2023-07-02T12:08:36;21.60;99.10
79694;DHT22;69165;52.714;13.200;2023-07-02T12:10:38;21.40;99.70
79694;DHT22;69165;52.714;13.200;2023-07-02T12:12:39;21.40;99.70
79694;DHT22;69165;52.714;13.200;2023-07-02T12:14:41;21.40;99.40
79694;DHT22;69165;52.714;13.200;2023-07-02T12:16:42;21.50;99.90
79694;DHT22;69165;52.714;13.200;2023-07-02T12:18:44;21.50;99.90
79694;DHT22;69165;52.714;13.200;2023-07-02T12:20:45;21.50;99.90
79694;DHT22;69165;52.714;13.200;2023-07-02T12:22:46;21.60;99.90
79694;DHT22;69165;52.714;13.200;2023-07-02T12:24:47;21.70;99.90
79694;DHT22;69165;52.714;13.200;2023-07-02T12:26:49;22.10;99.80
79694;DHT22;69165;52.714;13.200;2023-07-02T12:28:51;22.00;99.70
79694;DHT22;69165;52.714;13.200;2023-07-02T12:30:52;22.20;99.90
79694;DHT22;69165;52.714;13.200;2023-07-02T12:32:53;22.30;99.50
79694;DHT22;69165;52.714;13.200;2023-07-02T12:34:54;22.30;98.20
79694;DHT22;69165;52.714;13.200;2023-07-02T12:36:56;22.30;97.50
79694;DHT22;69165;52.714;13.200;2023-07-02T12:38:57;22.30;98.20
79694;DHT22;69165;52.714;13.200;2023-07-02T12:40:59;22.40;98.30
79694;DHT22;69165;52.714;13.200;2023-07-02T12:43:00;22.40;98.20
79694;DHT22;69165;52.714;13.200;2023-07-02T12:45:01;22.40;98.60
79694;DHT22;69165;52.714;13.200;2023-07-02T12:47:03;22.30;98.10
79694;DHT22;69165;52.714;13.200;2023-07-02T12:49:04;22.10;97.10
79694;DHT22;69165;52.714;13.200;2023-07-02T12:51:05;21.90;97.30
79694;DHT22;69165;52.714;13.200;2023-07-02T12:53:07;21.60;98.20
79694;DHT22;69165;52.714;13.200;2023-07-02T12:55:08;21.30;97.70
79694;DHT22;69165;52.714;13.200;2023-07-02T12:57:10;21.30;97.70
79694;DHT22;69165;52.714;13.200;2023-07-02T12:59:11;21.10;97.70
79694;DHT22;69165;52.714;13.200;2023-07-02T13:01:12;21.00;98.70
79694;DHT22;69165;52.714;13.200;2023-07-02T13:03:14;21.00;98.70
79694;DHT22;69165;52.714;13.200;2023-07-02T13:05:15;21.10;99.20
79694;DHT22;69165;52.714;13.200;2023-07-02T13:07:16;21.10;98.70
79694;DHT22;69165;52.714;13.200;2023-07-02T13:09:18;21.40;99.20
79694;DHT22;69165;52.714;13.200;2023-07-02T13:11:20;21.40;99.20
79694;DHT22;69165;52.714;13.200;2023-07-02T13:13:21;21.60;99.10
79694;DHT22;69165;52.714;13.200;2023-07-02T13:15:23;21.60;98.10
79694;DHT22;69165;52.714;13.200;2023-07-02T13:17:24;21.60;98.10
79694;DHT22;69165;52.714;13.200;2023-07-02T13:19:26;21.50;98.70
79694;DHT22;69165;52.714;13.200;2023-07-02T13:21:27;21.40;97.90
79694;DHT22;69165;52.714;13.200;2023-07-02T13:23:28;21.30;98.70
79694;DHT22;69165;52.714;13.200;2023-07-02T13:25:29;21.10;98.50
79694;DHT22;69165;52.714;13.200;2023-07-02T13:27:31;21.00;98.10
79694;DHT22;69165;52.714;13.200;2023-07-02T13:29:32;21.00;98.00
79694;DHT22;69165;52.714;13.200;2023-07-02T13:31:33;21.00;97.80
79694;DHT22;69165;52.714;13.200;2023-07-02T13:33:34;21.00;98.30
79694;DHT22;69165;52.714;13.200;2023-07-02T13:35:36;21.00;98.10
79694;DHT22;69165;52.714;13.200;2023-07-02T13:37:37;21.00;98.10
79694;DHT22;69165;52.714;13.200;2023-07-02T13:39:38;21.00;98.40
79694;DHT22;69165;52.714;13.200;2023-07-02T13:41:39;21.00;99.30
79694;DHT22;69165;52.714;13.200;2023-07-02T13:43:41;21.20;99.20
79694;DHT22;69165;52.714;13.200;2023-07-02T13:45:42;21.30;98.60
79694;DHT22;69165;52.714;13.200;2023-07-02T13:47:43;21.50;98.90
79694;DHT22;69165;52.714;13.200;2023-07-02T13:49:44;21.70;97.90
79694;DHT22;69165;52.714;13.200;2023-07-02T13:51:46;21.80;97.70
79694;DHT22;69165;52.714;13.200;2023-07-02T13:53:47;21.80;98.00
79694;DHT22;69165;52.714;13.200;2023-07-02T13:55:48;21.80;98.30
79694;DHT22;69165;52.714;13.200;2023-07-02T13:57:49;21.80;97.30
79694;DHT22;69165;52.714;13.200;2023-07-02T13:59:51;21.70;96.90
79694;DHT22;69165;52.714;13.200;2023-07-02T14:01:53;21.70;96.90
79694;DHT22;69165;52.714;13.200;2023-07-02T14:03:54;21.70;97.20
79694;DHT22;69165;52.714;13.200;2023-07-02T14:05:55;21.60;97.10
79694;DHT22;69165;52.714;13.200;2023-07-02T14:07:56;21.60;96.60
79694;DHT22;69165;52.714;13.200;2023-07-02T14:09:58;21.70;96.20
79694;DHT22;69165;52.714;13.200;2023-07-02T14:11:59;21.70;96.40
79694;DHT22;69165;52.714;13.200;2023-07-02T14:14:01;22.00;96.50
79694;DHT22;69165;52.714;13.200;2023-07-02T14:16:02;22.00;96.50
79694;DHT22;69165;52.714;13.200;2023-07-02T14:18:05;22.20;97.00
79694;DHT22;69165;52.714;13.200;2023-07-02T14:20:07;22.20;97.00
79694;DHT22;69165;52.714;13.200;2023-07-02T14:22:08;22.20;96.50
79694;DHT22;69165;52.714;13.200;2023-07-02T14:24:09;22.20;96.60
79694;DHT22;69165;52.714;13.200;2023-07-02T14:26:11;22.00;95.30
79694;DHT22;69165;52.714;13.200;2023-07-02T14:28:12;21.80;95.90
79694;DHT22;69165;52.714;13.200;2023-07-02T14:30:13;21.60;96.40
79694;DHT22;69165;52.714;13.200;2023-07-02T14:32:15;21.50;96.60
79694;DHT22;69165;52.714;13.200;2023-07-02T14:34:16;21.40;96.70
79694;DHT22;69165;52.714;13.200;2023-07-02T14:36:17;21.20;96.80
79694;DHT22;69165;52.714;13.200;2023-07-02T14:38:18;21.10;97.10
79694;DHT22;69165;52.714;13.200;2023-07-02T14:40:20;21.10;97.80
79694;DHT22;69165;52.714;13.200;2023-07-02T14:42:21;21.00;98.00
79694;DHT22;69165;52.714;13.200;2023-07-02T14:44:22;21.10;98.10
79694;DHT22;69165;52.714;13.200;2023-07-02T14:46:24;21.50;98.60
79694;DHT22;69165;52.714;13.200;2023-07-02T14:48:25;21.50;98.50
79694;DHT22;69165;52.714;13.200;2023-07-02T14:50:27;21.70;98.30
79694;DHT22;69165;52.714;13.200;2023-07-02T14:52:28;21.70;98.10
79694;DHT22;69165;52.714;13.200;2023-07-02T14:54:29;21.60;97.40
79694;DHT22;69165;52.714;13.200;2023-07-02T14:56:30;21.50;97.70
79694;DHT22;69165;52.714;13.200;2023-07-02T14:58:32;21.30;97.70
79694;DHT22;69165;52.714;13.200;2023-07-02T15:00:34;21.10;97.70
79694;DHT22;69165;52.714;13.200;2023-07-02T15:02:35;21.10;97.40
79694;DHT22;69165;52.714;13.200;2023-07-02T15:04:36;21.00;97.80
79694;DHT22;69165;52.714;13.200;2023-07-02T15:06:38;20.80;97.70
79694;DHT22;69165;52.714;13.200;2023-07-02T15:08:40;20.80;97.70
79694;DHT22;69165;52.714;13.200;2023-07-02T15:10:41;20.80;97.90
79694;DHT22;69165;52.714;13.200;2023-07-02T15:12:42;20.80;98.60
79694;DHT22;69165;52.714;13.200;2023-07-02T15:14:43;21.00;98.80
79694;DHT22;69165;52.714;13.200;2023-07-02T15:16:44;21.10;98.50
79694;DHT22;69165;52.714;13.200;2023-07-02T15:18:46;21.20;97.90
79694;DHT22;69165;52.714;13.200;2023-07-02T15:20:49;21.30;99.30
79694;DHT22;69165;52.714;13.200;2023-07-02T15:22:48;21.40;98.10
79694;DHT22;69165;52.714;13.200;2023-07-02T15:24:50;21.60;98.20
79694;DHT22;69165;52.714;13.200;2023-07-02T15:26:52;21.60;98.10
79694;DHT22;69165;52.714;13.200;2023-07-02T15:28:53;21.70;97.20
79694;DHT22;69165;52.714;13.200;2023-07-02T15:30:57;21.80;97.40
79694;DHT22;69165;52.714;13.200;2023-07-02T15:32:58;21.90;97.40
79694;DHT22;69165;52.714;13.200;2023-07-02T15:34:59;21.90;97.40
79694;DHT22;69165;52.714;13.200;2023-07-02T15:37:00;22.00;98.30
79694;DHT22;69165;52.714;13.200;2023-07-02T15:39:02;22.00;97.90
79694;DHT22;69165;52.714;13.200;2023-07-02T15:41:05;22.00;97.80
79694;DHT22;69165;52.714;13.200;2023-07-02T15:43:05;22.00;97.20
79694;DHT22;69165;52.714;13.200;2023-07-02T15:45:06;21.90;97.00
79694;DHT22;69165;52.714;13.200;2023-07-02T15:47:08;21.70;96.70
79694;DHT22;69165;52.714;13.200;2023-07-02T15:49:10;21.70;96.70
79694;DHT22;69165;52.714;13.200;2023-07-02T15:51:11;21.70;96.60
79694;DHT22;69165;52.714;13.200;2023-07-02T15:53:12;21.70;97.00
79694;DHT22;69165;52.714;13.200;2023-07-02T15:55:13;21.70;96.10
79694;DHT22;69165;52.714;13.200;2023-07-02T15:57:16;21.60;96.30
79694;DHT22;69165;52.714;13.200;2023-07-02T15:59:16;21.50;96.70
79694;DHT22;69165;52.714;13.200;2023-07-02T16:01:18;21.50;96.80
79694;DHT22;69165;52.714;13.200;2023-07-02T16:03:19;21.50;97.00
79694;DHT22;69165;52.714;13.200;2023-07-02T16:05:20;21.40;96.90
79694;DHT22;69165;52.714;13.200;2023-07-02T16:07:22;21.40;96.90
79694;DHT22;69165;52.714;13.200;2023-07-02T16:09:23;21.40;97.00
79694;DHT22;69165;52.714;13.200;2023-07-02T16:11:24;21.50;97.10
79694;DHT22;69165;52.714;13.200;2023-07-02T16:13:27;21.50;97.00
79694;DHT22;69165;52.714;13.200;2023-07-02T16:15:27;21.60;96.50
79694;DHT22;69165;52.714;13.200;2023-07-02T16:17:28;21.60;97.10
79694;DHT22;69165;52.714;13.200;2023-07-02T16:19:29;21.60;96.90
79694;DHT22;69165;52.714;13.200;2023-07-02T16:21:30;21.60;96.50
79694;DHT22;69165;52.714;13.200;2023-07-02T16:23:33;21.50;96.30
79694;DHT22;69165;52.714;13.200;2023-07-02T16:25:34;21.50;96.30
79694;DHT22;69165;52.714;13.200;2023-07-02T16:27:35;21.50;96.20
79694;DHT22;69165;52.714;13.200;2023-07-02T16:29:36;21.40;96.80
79694;DHT22;69165;52.714;13.200;2023-07-02T16:31:39;21.40;96.50
79694;DHT22;69165;52.714;13.200;2023-07-02T16:33:39;21.40;96.60
79694;DHT22;69165;52.714;13.200;2023-07-02T16:35:40;21.40;97.10
79694;DHT22;69165;52.714;13.200;2023-07-02T16:37:41;21.50;97.00
79694;DHT22;69165;52.714;13.200;2023-07-02T16:39:43;21.50;96.20
79694;DHT22;69165;52.714;13.200;2023-07-02T16:41:45;21.40;96.00
79694;DHT22;69165;52.714;13.200;2023-07-02T16:43:47;21.40;96.00
79694;DHT22;69165;52.714;13.200;2023-07-02T16:45:51;21.40;95.50
79694;DHT22;69165;52.714;13.200;2023-07-02T16:47:52;21.30;95.80
79694;DHT22;69165;52.714;13.200;2023-07-02T16:49:53;21.30;95.30
79694;DHT22;69165;52.714;13.200;2023-07-02T16:51:55;21.20;95.40
79694;DHT22;69165;52.714;13.200;2023-07-02T16:53:57;21.20;96.00
79694;DHT22;69165;52.714;13.200;2023-07-02T16:55:59;21.20;96.20
79694;DHT22;69165;52.714;13.200;2023-07-02T16:58:01;21.20;95.80
79694;DHT22;69165;52.714;13.200;2023-07-02T17:00:02;21.10;95.80
79694;DHT22;69165;52.714;13.200;2023-07-02T17:02:04;21.10;95.90
79694;DHT22;69165;52.714;13.200;2023-07-02T17:04:05;21.00;96.60
79694;DHT22;69165;52.714;13.200;2023-07-02T17:06:06;20.90;96.20
79694;DHT22;69165;52.714;13.200;2023-07-02T17:08:07;20.80;96.40
79694;DHT22;69165;52.714;13.200;2023-07-02T17:10:09;20.70;96.20
79694;DHT22;69165;52.714;13.200;2023-07-02T17:12:11;20.80;96.40
79694;DHT22;69165;52.714;13.200;2023-07-02T17:14:11;20.80;96.20
79694;DHT22;69165;52.714;13.200;2023-07-02T17:16:12;20.80;95.40
79694;DHT22;69165;52.714;13.200;2023-07-02T17:18:14;20.80;95.80
79694;DHT22;69165;52.714;13.200;2023-07-02T17:20:15;20.80;95.90
79694;DHT22;69165;52.714;13.200;2023-07-02T17:22:17;20.80;96.10
79694;DHT22;69165;52.714;13.200;2023-07-02T17:24:19;20.90;96.50
79694;DHT22;69165;52.714;13.200;2023-07-02T17:26:20;20.80;95.60
79694;DHT22;69165;52.714;13.200;2023-07-02T17:28:21;20.80;95.60
79694;DHT22;69165;52.714;13.200;2023-07-02T17:30:22;20.80;95.60
79694;DHT22;69165;52.714;13.200;2023-07-02T17:32:24;20.60;96.40
79694;DHT22;69165;52.714;13.200;2023-07-02T17:34:26;20.60;96.40
79694;DHT22;69165;52.714;13.200;2023-07-02T17:36:27;20.50;96.70
79694;DHT22;69165;52.714;13.200;2023-07-02T17:38:28;20.40;96.80
79694;DHT22;69165;52.714;13.200;2023-07-02T17:40:29;20.30;96.10
79694;DHT22;69165;52.714;13.200;2023-07-02T17:42:31;20.20;96.70